createdAt,value
2018-11-01T00:00:19.021Z,14.68
2018-11-01T00:02:48.042Z,13.13
2018-11-01T00:05:17.005Z,13.90
2018-11-01T00:07:45.897Z,12.88
2018-11-01T00:10:14.644Z,13.45
2018-11-01T00:12:44.228Z,12.18
2018-11-01T00:15:14.009Z,12.03
2018-11-01T00:17:42.534Z,12.00
2018-11-01T00:20:13.231Z,11.10
2018-11-01T00:22:42.604Z,12.35
2018-11-01T00:25:12.249Z,11.20
2018-11-01T00:27:41.925Z,11.57
2018-11-01T00:30:11.040Z,13.88
2018-11-01T00:32:39.728Z,11.73
2018-11-01T00:35:08.918Z,12.80
2018-11-01T00:37:37.428Z,13.08
2018-11-01T00:40:08.689Z,11.48
2018-11-01T00:42:37.418Z,11.60
2018-11-01T00:45:06.930Z,11.05
2018-11-01T00:47:35.906Z,10.65
2018-11-01T00:50:05.042Z,9.73
2018-11-01T00:52:33.589Z,9.00
2018-11-01T00:55:02.145Z,9.00
2018-11-01T00:57:30.673Z,9.83
2018-11-01T00:59:59.198Z,9.23
2018-11-01T01:02:27.762Z,8.50
2018-11-01T01:04:56.311Z,8.55
2018-11-01T01:07:24.925Z,7.92
2018-11-01T01:09:53.481Z,7.72
2018-11-01T01:12:22.055Z,7.60
2018-11-01T01:14:50.589Z,8.53
2018-11-01T01:17:19.126Z,7.83
2018-11-01T01:19:47.655Z,7.78
2018-11-01T01:22:16.192Z,7.62
2018-11-01T01:24:44.797Z,6.37
2018-11-01T01:27:13.450Z,5.92
2018-11-01T01:29:41.981Z,6.10
2018-11-01T01:32:10.701Z,6.10
2018-11-01T01:34:39.340Z,6.60
2018-11-01T01:37:07.815Z,5.95
2018-11-01T01:39:36.338Z,5.78
2018-11-01T01:42:05.122Z,5.95
2018-11-01T01:44:33.694Z,6.75
2018-11-01T01:47:02.252Z,5.25
2018-11-01T01:49:30.801Z,6.17
2018-11-01T01:51:59.333Z,5.50
2018-11-01T01:54:27.863Z,5.95
2018-11-01T01:56:56.378Z,5.42
2018-11-01T01:59:24.905Z,5.83
2018-11-01T02:01:53.416Z,6.22
2018-11-01T02:04:21.982Z,5.80
2018-11-01T02:06:50.551Z,6.60
2018-11-01T02:09:19.133Z,6.75
2018-11-01T02:11:47.720Z,7.10
2018-11-01T02:14:16.198Z,7.33
2018-11-01T02:16:44.742Z,7.90
2018-11-01T02:19:13.697Z,7.70
2018-11-01T02:21:42.315Z,7.78
2018-11-01T02:24:10.849Z,6.17
2018-11-01T02:26:39.382Z,7.00
2018-11-01T02:29:07.906Z,7.65
2018-11-01T02:31:36.426Z,7.70
2018-11-01T02:34:05.391Z,7.03
2018-11-01T02:36:34.007Z,6.85
2018-11-01T07:42:04.614Z,19.12
2018-11-01T07:44:33.236Z,21.05
2018-11-01T07:47:01.760Z,19.12
2018-11-01T07:49:30.298Z,20.65
2018-11-01T07:51:58.820Z,18.48
2018-11-01T07:54:27.361Z,18.32
2018-11-01T07:56:55.955Z,15.68
2018-11-01T07:59:31.323Z,16.15
2018-11-01T08:01:59.881Z,18.25
2018-11-01T08:04:28.405Z,13.60
2018-11-01T08:06:57.005Z,15.83
2018-11-01T08:09:25.554Z,12.37
2018-11-01T08:11:54.162Z,12.43
2018-11-01T08:14:22.729Z,11.20
2018-11-01T08:16:51.271Z,12.10
2018-11-01T08:19:19.875Z,12.35
2018-11-01T08:21:48.406Z,13.75
2018-11-01T08:24:17.065Z,13.78
2018-11-01T08:26:45.583Z,12.70
2018-11-01T08:29:14.166Z,12.28
2018-11-01T08:31:42.853Z,13.85
2018-11-01T08:34:11.379Z,12.28
2018-11-01T08:36:39.905Z,14.75
2018-11-01T08:39:09.224Z,15.18
2018-11-01T08:41:37.920Z,14.75
2018-11-01T08:44:07.005Z,15.15
2018-11-01T08:46:35.574Z,17.70
2018-11-01T08:49:04.285Z,17.70
2018-11-01T08:51:32.872Z,20.43
2018-11-01T08:54:01.381Z,14.75
2018-11-01T08:56:29.965Z,13.13
2018-11-01T08:58:58.618Z,13.45
2018-11-01T09:01:27.186Z,12.82
2018-11-01T09:03:55.770Z,16.95
2018-11-01T09:06:24.321Z,15.68
2018-11-01T09:08:52.873Z,15.90
2018-11-01T09:11:21.530Z,10.48
2018-11-01T09:13:50.109Z,13.65
2018-11-01T09:16:18.640Z,14.25
2018-11-01T09:18:47.205Z,19.32
2018-11-01T09:21:15.805Z,21.45
2018-11-01T09:23:44.401Z,15.58
2018-11-01T09:26:12.957Z,13.65
2018-11-01T09:28:41.614Z,13.05
2018-11-01T09:31:10.130Z,18.82
2018-11-01T09:33:38.797Z,18.70
2018-11-01T09:36:07.341Z,16.37
2018-11-01T09:38:35.961Z,13.00
2018-11-01T09:41:04.496Z,13.48
2018-11-01T09:43:33.113Z,13.83
2018-11-01T09:46:01.750Z,10.35
2018-11-01T09:48:30.278Z,10.20
2018-11-01T09:50:58.833Z,12.95
2018-11-01T09:53:27.530Z,13.38
2018-11-01T09:55:56.264Z,16.40
2018-11-01T09:58:24.746Z,10.13
2018-11-01T10:00:53.307Z,14.23
2018-11-01T10:03:21.955Z,19.35
2018-11-01T10:05:50.534Z,20.27
2018-11-01T10:08:19.102Z,18.30
2018-11-01T10:10:47.718Z,20.00
2018-11-01T10:13:16.283Z,11.73
2018-11-01T10:15:45.071Z,16.07
2018-11-01T10:18:13.987Z,12.93
2018-11-01T10:20:42.079Z,10.07
2018-11-01T10:23:10.791Z,8.87
2018-11-01T10:25:39.353Z,9.53
2018-11-01T10:28:07.949Z,6.53
2018-11-01T10:30:36.488Z,6.50
2018-11-01T10:33:05.346Z,6.80
2018-11-01T10:35:34.017Z,3.70
2018-11-01T10:38:02.724Z,3.60
2018-11-01T10:40:31.312Z,3.50
2018-11-01T10:42:59.909Z,4.67
2018-11-01T10:45:28.507Z,4.20
2018-11-01T10:47:57.181Z,5.77
2018-11-01T10:50:25.794Z,4.17
2018-11-01T10:52:54.590Z,3.60
2018-11-01T10:55:23.240Z,4.00
2018-11-01T10:57:51.885Z,3.73
2018-11-01T11:00:25.855Z,3.50
2018-11-01T11:02:54.454Z,3.83
2018-11-01T11:05:23.474Z,3.73
2018-11-01T11:07:52.050Z,5.00
2018-11-01T11:10:20.850Z,3.27
2018-11-01T11:12:49.398Z,3.37
2018-11-01T11:15:18.090Z,3.13
2018-11-01T11:17:46.614Z,3.63
2018-11-01T11:20:15.302Z,2.70
2018-11-01T11:22:43.852Z,4.27
2018-11-01T11:25:12.922Z,3.70
2018-11-01T11:27:41.682Z,3.03
2018-11-01T11:30:11.193Z,3.13
2018-11-01T11:32:39.942Z,3.57
2018-11-01T11:35:09.485Z,2.77
2018-11-01T11:37:38.049Z,3.10
2018-11-01T11:40:08.261Z,2.70
2018-11-01T11:42:36.941Z,2.90
2018-11-01T11:45:06.694Z,3.20
2018-11-01T11:47:35.299Z,2.67
2018-11-01T11:50:04.427Z,3.13
2018-11-01T11:52:33.024Z,3.27
2018-11-01T11:55:01.686Z,2.83
2018-11-01T11:57:30.346Z,3.10
2018-11-01T11:59:59.012Z,3.40
2018-11-01T12:02:27.647Z,3.27
2018-11-01T12:04:56.225Z,2.37
2018-11-01T12:07:24.933Z,2.40
2018-11-01T12:09:53.629Z,2.70
2018-11-01T12:12:22.368Z,2.10
2018-11-01T12:14:51.037Z,2.40
2018-11-01T12:17:19.595Z,2.30
2018-11-01T12:19:48.350Z,2.57
2018-11-01T12:22:17.019Z,2.90
2018-11-01T12:24:45.512Z,3.80
2018-11-01T12:27:14.069Z,2.53
2018-11-01T12:29:42.645Z,2.90
2018-11-01T12:32:11.365Z,3.37
2018-11-01T12:34:40.195Z,2.70
2018-11-01T12:37:08.866Z,2.60
2018-11-01T12:39:37.454Z,3.33
2018-11-01T12:42:06.075Z,3.67
2018-11-01T12:44:34.630Z,3.97
2018-11-01T12:47:03.230Z,3.70
2018-11-01T12:49:31.878Z,3.63
2018-11-01T12:52:00.404Z,3.53
2018-11-01T12:54:28.974Z,2.73
2018-11-01T12:56:57.969Z,2.93
2018-11-01T12:59:26.641Z,3.20
2018-11-01T13:01:55.307Z,3.47
2018-11-01T13:04:24.083Z,3.13
2018-11-01T13:06:52.680Z,3.00
2018-11-01T13:09:21.301Z,2.77
2018-11-01T13:11:49.890Z,3.27
2018-11-01T13:14:18.531Z,3.50
2018-11-01T13:16:47.211Z,3.03
2018-11-01T13:19:15.781Z,3.20
2018-11-01T13:21:44.456Z,2.93
2018-11-01T13:24:13.002Z,2.93
2018-11-01T13:26:41.637Z,2.70
2018-11-01T13:29:10.319Z,2.50
2018-11-01T13:31:39.044Z,2.97
2018-11-01T13:34:07.759Z,2.67
2018-11-01T13:36:36.442Z,2.97
2018-11-01T13:39:07.150Z,3.40
2018-11-01T13:41:36.117Z,3.87
2018-11-01T13:44:05.139Z,3.90
2018-11-01T13:46:33.937Z,3.37
2018-11-01T13:49:02.450Z,3.90
2018-11-01T13:51:31.189Z,4.17
2018-11-01T13:53:59.769Z,3.60
2018-11-01T13:56:28.676Z,3.50
2018-11-01T13:58:57.381Z,4.13
2018-11-01T14:01:25.992Z,3.77
2018-11-01T14:03:54.641Z,3.60
2018-11-01T14:06:23.258Z,4.10
2018-11-01T14:08:52.138Z,3.80
2018-11-01T14:11:20.696Z,4.20
2018-11-01T14:13:49.414Z,3.80
2018-11-01T14:16:17.843Z,3.50
2018-11-01T14:18:46.713Z,5.00
2018-11-01T14:21:15.397Z,3.73
2018-11-01T14:23:44.042Z,4.37
2018-11-01T14:26:13.058Z,4.10
2018-11-01T14:28:42.021Z,4.97
2018-11-01T14:31:11.095Z,4.60
2018-11-01T14:33:39.638Z,4.80
2018-11-01T14:36:08.849Z,5.37
2018-11-01T14:38:37.441Z,5.80
2018-11-01T14:41:06.404Z,5.17
2018-11-01T14:43:35.162Z,4.43
2018-11-01T14:46:03.834Z,4.20
2018-11-01T14:48:32.596Z,5.57
2018-11-01T14:51:01.184Z,4.57
2018-11-01T14:53:30.913Z,5.17
2018-11-01T14:55:59.601Z,4.60
2018-11-01T14:58:28.028Z,4.63
2018-11-01T15:00:55.908Z,4.83
2018-11-01T15:03:24.504Z,5.40
2018-11-01T15:05:53.088Z,4.93
2018-11-01T15:08:21.694Z,5.27
2018-11-01T15:10:50.333Z,5.30
2018-11-01T15:13:19.081Z,4.70
2018-11-01T15:15:47.656Z,5.00
2018-11-01T15:18:16.439Z,4.90
2018-11-01T15:20:44.988Z,4.57
2018-11-01T15:23:13.708Z,4.30
2018-11-01T15:25:42.373Z,4.50
2018-11-01T15:28:11.054Z,4.80
2018-11-01T15:30:39.735Z,5.03
2018-11-01T15:33:08.301Z,5.60
2018-11-01T15:35:37.032Z,5.37
2018-11-01T15:38:05.626Z,5.50
2018-11-01T15:40:34.262Z,5.53
2018-11-01T15:43:02.961Z,5.50
2018-11-01T15:45:31.603Z,5.43
2018-11-01T15:48:00.332Z,5.80
2018-11-01T15:50:28.989Z,6.23
2018-11-01T15:52:57.608Z,5.57
2018-11-01T15:55:26.353Z,4.80
2018-11-01T15:57:54.950Z,5.30
2018-11-01T16:00:23.725Z,5.13
2018-11-01T16:02:52.417Z,5.50
2018-11-01T16:05:21.043Z,5.43
2018-11-01T16:07:49.632Z,8.63
2018-11-01T16:10:18.372Z,7.50
2018-11-01T16:12:46.846Z,6.60
2018-11-01T16:15:16.560Z,5.77
2018-11-01T16:17:45.116Z,5.50
2018-11-01T16:20:13.934Z,5.40
2018-11-01T16:22:42.481Z,5.77
2018-11-01T16:25:11.032Z,5.20
2018-11-01T16:27:39.605Z,4.70
2018-11-01T16:30:08.799Z,5.60
2018-11-01T16:32:37.370Z,4.30
2018-11-01T16:35:06.482Z,5.03
2018-11-01T16:37:35.078Z,5.77
2018-11-01T16:40:05.058Z,5.80
2018-11-01T16:42:33.872Z,6.43
2018-11-01T16:45:02.487Z,6.45
2018-11-01T16:47:31.163Z,6.60
2018-11-01T16:49:59.781Z,6.70
2018-11-01T16:52:28.365Z,10.07
2018-11-01T16:54:56.906Z,8.98
2018-11-01T16:57:25.568Z,9.28
2018-11-01T16:59:54.188Z,24.45
2018-11-01T17:02:22.881Z,31.30
2018-11-01T17:04:51.651Z,28.80
2018-11-01T17:07:20.283Z,17.87
2018-11-01T17:09:48.835Z,9.28
2018-11-01T17:12:17.428Z,7.20
2018-11-01T17:14:46.220Z,6.62
2018-11-01T17:17:14.793Z,7.12
2018-11-01T17:19:43.497Z,6.60
2018-11-01T17:22:12.165Z,6.65
2018-11-01T17:24:40.738Z,7.53
2018-11-01T17:27:09.382Z,7.75
2018-11-01T17:29:38.031Z,7.42
2018-11-01T17:32:06.747Z,8.35
2018-11-01T17:34:35.408Z,8.75
2018-11-01T17:37:04.096Z,8.85
2018-11-01T17:39:32.812Z,9.03
2018-11-01T17:42:01.386Z,9.25
2018-11-01T17:44:30.128Z,10.38
2018-11-01T17:46:58.707Z,9.70
2018-11-01T17:49:27.413Z,9.25
2018-11-01T17:51:56.061Z,10.78
2018-11-01T17:54:24.658Z,10.53
2018-11-01T17:56:53.398Z,9.55
2018-11-01T17:59:21.986Z,10.30
2018-11-01T18:01:50.610Z,9.28
2018-11-01T18:04:19.133Z,9.98
2018-11-01T18:06:47.716Z,9.40
2018-11-01T18:09:16.627Z,10.88
2018-11-01T18:11:45.521Z,9.08
2018-11-01T18:14:14.101Z,11.48
2018-11-01T18:16:42.648Z,11.00
2018-11-01T18:19:11.291Z,10.15
2018-11-01T18:21:39.984Z,10.75
2018-11-01T18:24:08.625Z,10.15
2018-11-01T18:26:37.454Z,8.65
2018-11-01T18:29:06.455Z,9.40
2018-11-01T18:31:34.965Z,8.73
2018-11-01T18:34:03.529Z,8.98
2018-11-01T18:36:32.144Z,9.30
2018-11-01T18:39:00.704Z,8.60
2018-11-01T18:41:29.461Z,8.30
2018-11-01T18:43:58.040Z,10.95
2018-11-01T18:46:26.657Z,11.53
2018-11-01T18:48:55.385Z,9.60
2018-11-01T18:51:24.699Z,8.75
2018-11-01T18:53:53.383Z,9.05
2018-11-01T18:56:22.180Z,8.73
2018-11-01T18:58:50.837Z,8.58
2018-11-01T19:01:19.566Z,9.45
2018-11-01T19:03:48.198Z,9.63
2018-11-01T19:06:16.909Z,9.63
2018-11-01T19:08:45.516Z,9.25
2018-11-01T19:11:14.097Z,8.50
2018-11-01T19:13:42.799Z,9.35
2018-11-01T19:16:11.326Z,9.65
2018-11-01T19:18:39.970Z,9.90
2018-11-01T19:21:08.706Z,11.60
2018-11-01T19:23:37.250Z,9.45
2018-11-01T19:26:06.274Z,8.78
2018-11-01T19:28:34.829Z,8.35
2018-11-01T19:31:03.403Z,8.68
2018-11-01T19:33:32.011Z,11.05
2018-11-01T19:36:00.614Z,10.68
2018-11-01T19:38:29.262Z,10.15
2018-11-01T19:40:57.811Z,10.43
2018-11-01T19:43:26.497Z,10.10
2018-11-01T19:45:55.129Z,8.80
2018-11-01T19:48:23.881Z,7.45
2018-11-01T19:50:52.549Z,8.53
2018-11-01T19:53:21.097Z,8.15
2018-11-01T19:55:49.717Z,11.78
2018-11-01T19:58:18.322Z,11.73
2018-11-01T20:00:47.073Z,10.80
2018-11-01T20:03:15.714Z,14.98
2018-11-01T20:05:44.319Z,15.30
2018-11-01T20:08:13.033Z,11.10
2018-11-01T20:10:41.666Z,10.98
2018-11-01T20:13:10.227Z,10.23
2018-11-01T20:15:39.054Z,10.10
2018-11-01T20:18:07.740Z,10.30
2018-11-01T20:20:36.363Z,10.25
2018-11-01T20:23:04.993Z,12.13
2018-11-01T20:25:33.601Z,16.10
2018-11-01T20:28:02.270Z,18.67
2018-11-01T20:30:30.849Z,16.30
2018-11-01T20:32:59.440Z,13.30
2018-11-01T20:35:27.970Z,13.55
2018-11-01T20:37:56.733Z,12.30
2018-11-01T20:40:25.427Z,12.73
2018-11-01T20:42:54.118Z,11.83
2018-11-01T20:45:23.434Z,12.60
2018-11-01T20:47:52.053Z,12.68
2018-11-01T20:50:20.767Z,14.05
2018-11-01T20:52:49.341Z,15.63
2018-11-01T20:55:18.010Z,14.18
2018-11-01T20:57:46.779Z,15.05
2018-11-01T21:00:15.855Z,14.68
2018-11-01T21:02:44.649Z,14.58
2018-11-01T21:05:13.358Z,13.15
2018-11-01T21:07:41.933Z,14.05
2018-11-01T21:10:11.318Z,12.82
2018-11-01T21:12:40.299Z,14.28
2018-11-01T21:15:10.738Z,13.95
2018-11-01T21:17:39.424Z,12.50
2018-11-01T21:20:08.572Z,12.95
2018-11-01T21:22:37.278Z,14.07
2018-11-01T21:25:06.761Z,13.00
2018-11-01T21:27:35.444Z,13.85
2018-11-01T21:30:04.462Z,13.20
2018-11-01T21:32:33.873Z,12.30
2018-11-01T21:35:02.607Z,12.55
2018-11-01T21:37:31.628Z,13.50
2018-11-01T21:40:00.222Z,13.40
2018-11-01T21:42:28.822Z,12.37
2018-11-01T21:44:57.519Z,11.20
2018-11-01T21:47:26.093Z,11.35
2018-11-01T21:49:54.774Z,11.97
2018-11-01T21:52:23.435Z,12.20
2018-11-01T21:54:52.286Z,11.25
2018-11-01T21:57:20.958Z,12.25
2018-11-01T21:59:49.585Z,12.60
2018-11-01T22:02:18.164Z,12.85
2018-11-01T22:04:46.694Z,12.47
2018-11-01T22:07:15.313Z,14.00
2018-11-01T22:09:43.915Z,11.57
2018-11-01T22:12:12.497Z,12.10
2018-11-01T22:14:41.151Z,11.43
2018-11-01T22:17:09.719Z,12.03
2018-11-01T22:19:38.403Z,11.20
2018-11-01T22:22:07.089Z,11.03
2018-11-01T22:24:35.822Z,10.50
2018-11-01T22:27:04.465Z,11.68
2018-11-01T22:29:32.994Z,10.48
2018-11-01T22:32:01.574Z,10.30
2018-11-01T22:34:30.089Z,10.32
2018-11-01T22:36:58.677Z,10.65
2018-11-01T22:39:27.274Z,9.73
2018-11-01T22:41:55.810Z,9.40
2018-11-01T22:44:24.497Z,8.63
2018-11-01T22:46:53.339Z,9.83
2018-11-01T22:49:21.986Z,8.85
2018-11-01T22:51:50.531Z,10.10
2018-11-01T22:54:19.117Z,8.80
2018-11-01T22:56:47.681Z,8.70
2018-11-01T22:59:16.246Z,9.30
2018-11-01T23:01:44.774Z,8.83
2018-11-01T23:04:13.496Z,10.30
2018-11-01T23:06:42.123Z,8.35
2018-11-01T23:09:11.319Z,9.50
2018-11-01T23:11:40.409Z,8.73
2018-11-01T23:14:09.118Z,8.70
2018-11-01T23:16:37.786Z,8.70
2018-11-01T23:19:06.356Z,9.15
2018-11-01T23:21:34.924Z,9.65
2018-11-01T23:24:03.575Z,9.00
2018-11-01T23:26:32.313Z,9.00
2018-11-01T23:29:00.931Z,9.63
2018-11-01T23:31:29.480Z,8.78
2018-11-01T23:33:58.008Z,9.93
2018-11-01T23:36:25.780Z,9.80
2018-11-01T23:38:59.610Z,10.50
2018-11-01T23:41:33.568Z,10.23
2018-11-01T23:44:07.537Z,9.15
2018-11-01T23:46:41.534Z,11.28
2018-11-01T23:49:16.117Z,9.90
2018-11-01T23:51:48.844Z,9.85
2018-11-01T23:54:17.373Z,9.45
2018-11-01T23:56:45.893Z,10.38
2018-11-01T23:59:14.459Z,9.23
